createdAt,value
2017-11-14T00:01:36.052Z,100821.34
2017-11-14T00:04:04.693Z,100820.21
2017-11-14T00:06:51.704Z,100820.10
2017-11-14T00:09:19.743Z,100811.03
2017-11-14T00:11:47.816Z,100811.62
2017-11-14T00:14:15.478Z,100816.20
2017-11-14T00:16:43.982Z,100814.59
2017-11-14T00:21:46.963Z,100816.87
2017-11-14T00:24:14.837Z,100819.72
2017-11-14T00:26:42.524Z,100828.42
2017-11-14T00:29:10.145Z,100826.47
2017-11-14T00:31:37.654Z,100829.81
2017-11-14T00:34:05.296Z,100825.50
2017-11-14T00:36:33.037Z,100828.88
2017-11-14T00:39:00.867Z,100831.43
2017-11-14T00:41:28.343Z,100824.60
2017-11-14T00:43:55.910Z,100829.37
2017-11-14T00:46:23.651Z,100828.13
2017-11-14T00:48:51.889Z,100836.34
2017-11-14T00:51:19.373Z,100832.18
2017-11-14T00:53:47.218Z,100834.98
2017-11-14T00:56:15.206Z,100833.37
2017-11-14T00:58:42.791Z,100831.58
2017-11-14T01:01:10.255Z,100829.96
2017-11-14T01:03:37.808Z,100830.98
2017-11-14T01:06:05.380Z,100837.05
2017-11-14T01:08:33.117Z,100838.17
2017-11-14T01:11:00.655Z,100838.78
2017-11-14T01:13:28.494Z,100839.48
2017-11-14T01:15:55.974Z,100843.02
2017-11-14T01:18:24.203Z,100847.86
2017-11-14T01:20:52.404Z,100860.42
2017-11-14T01:23:21.193Z,100858.09
2017-11-14T01:28:55.751Z,100848.42
2017-11-14T01:31:27.170Z,100852.73
2017-11-14T01:34:02.980Z,100850.59
2017-11-14T01:36:45.338Z,100851.64
2017-11-14T01:39:13.196Z,100852.95
2017-11-14T01:41:41.242Z,100857.80
2017-11-14T01:44:08.699Z,100864.43
2017-11-14T01:46:38.304Z,100855.54
2017-11-14T01:49:06.953Z,100851.11
2017-11-14T01:51:34.620Z,100854.27
2017-11-14T01:54:02.230Z,100858.47
2017-11-14T01:56:30.011Z,100857.16
2017-11-14T01:58:57.523Z,100861.39
2017-11-14T02:01:26.063Z,100858.77
2017-11-14T02:03:53.821Z,100860.19
2017-11-14T02:06:21.378Z,100856.37
2017-11-14T02:08:53.664Z,100855.16
2017-11-14T02:11:21.329Z,100848.38
2017-11-14T02:13:49.050Z,100857.83
2017-11-14T02:16:16.898Z,100861.77
2017-11-14T02:18:46.124Z,100862.17
2017-11-14T02:21:16.083Z,100864.05
2017-11-14T02:23:43.804Z,100871.89
2017-11-14T02:29:09.656Z,100860.48
2017-11-14T02:31:37.918Z,100868.03
2017-11-14T02:34:05.763Z,100870.20
2017-11-14T02:36:33.718Z,100879.17
2017-11-14T02:39:10.410Z,100872.53
2017-11-14T02:41:38.094Z,100878.98
2017-11-14T02:44:06.369Z,100881.84
2017-11-14T02:46:34.129Z,100883.83
2017-11-14T02:49:01.886Z,100884.77
2017-11-14T02:51:29.854Z,100891.59
2017-11-14T02:53:57.417Z,100902.92
2017-11-14T02:56:25.240Z,100896.66
2017-11-14T03:01:56.479Z,100904.95
2017-11-14T03:04:24.236Z,100904.16
2017-11-14T03:06:57.337Z,100903.14
2017-11-14T03:09:24.948Z,100907.35
2017-11-14T03:11:52.670Z,100908.06
2017-11-14T03:14:20.185Z,100906.75
2017-11-14T03:16:47.681Z,100908.25
2017-11-14T03:19:15.324Z,100916.31
2017-11-14T03:21:42.806Z,100913.05
2017-11-14T03:24:10.569Z,100911.41
2017-11-14T03:29:32.642Z,100916.88
2017-11-14T03:32:00.442Z,100916.28
2017-11-14T03:34:27.925Z,100920.82
2017-11-14T03:36:56.095Z,100921.56
2017-11-14T03:39:25.206Z,100914.07
2017-11-14T03:41:52.742Z,100914.14
2017-11-14T03:44:20.294Z,100922.02
2017-11-14T03:46:48.470Z,100921.13
2017-11-14T03:49:15.937Z,100929.48
2017-11-14T03:51:43.515Z,100935.87
2017-11-14T03:54:11.077Z,100938.41
2017-11-14T03:56:39.309Z,100944.65
2017-11-14T03:59:06.869Z,100935.87
2017-11-14T04:01:34.548Z,100935.34
2017-11-14T04:04:02.280Z,100934.14
2017-11-14T04:06:29.760Z,100937.41
2017-11-14T04:08:57.291Z,100939.02
2017-11-14T04:11:24.799Z,100939.77
2017-11-14T04:13:52.315Z,100938.16
2017-11-14T04:16:19.844Z,100938.94
2017-11-14T04:18:47.329Z,100940.06
2017-11-14T04:21:15.900Z,100933.91
2017-11-14T04:23:43.480Z,100939.98
2017-11-14T04:26:11.038Z,100944.53
2017-11-14T04:28:38.527Z,100948.99
2017-11-14T04:31:05.994Z,100955.06
2017-11-14T04:33:33.566Z,100951.05
2017-11-14T04:36:01.986Z,100954.88
2017-11-14T04:38:30.597Z,100951.84
2017-11-14T04:43:53.087Z,100961.52
2017-11-14T05:03:34.440Z,100982.92
2017-11-14T05:06:02.424Z,100985.28
2017-11-14T05:08:29.959Z,100983.78
2017-11-14T05:10:57.444Z,100988.62
2017-11-14T05:13:24.997Z,100993.57
2017-11-14T05:15:52.594Z,100992.78
2017-11-14T05:18:20.296Z,100994.77
2017-11-14T05:20:47.806Z,100996.72
2017-11-14T05:23:15.220Z,100999.53
2017-11-14T05:25:57.929Z,100997.23
2017-11-14T05:28:27.089Z,100998.55
2017-11-14T05:30:59.752Z,101002.41
2017-11-14T05:33:28.170Z,101008.37
2017-11-14T05:35:55.752Z,101007.84
2017-11-14T05:38:24.271Z,101007.58
2017-11-14T05:40:56.172Z,101004.95
2017-11-14T05:43:25.296Z,101009.27
2017-11-14T05:45:54.590Z,101013.20
2017-11-14T05:48:23.209Z,101009.79
2017-11-14T05:50:50.913Z,101017.06
2017-11-14T05:53:20.149Z,101014.58
2017-11-14T05:55:47.737Z,101017.91
2017-11-14T05:58:15.257Z,101019.63
2017-11-14T06:00:42.985Z,101020.75
2017-11-14T06:03:10.752Z,101028.52
2017-11-14T06:05:38.251Z,101027.84
2017-11-14T06:08:05.766Z,101022.59
2017-11-14T06:10:33.529Z,101024.99
2017-11-14T06:13:01.105Z,101031.64
2017-11-14T06:15:28.685Z,101027.48
2017-11-14T06:17:56.341Z,101028.41
2017-11-14T06:20:23.897Z,101031.53
2017-11-14T06:22:51.459Z,101033.66
2017-11-14T06:25:19.903Z,101037.58
2017-11-14T06:27:47.562Z,101032.59
2017-11-14T06:30:15.169Z,101047.55
2017-11-14T06:32:43.140Z,101050.09
2017-11-14T06:35:11.129Z,101050.09
2017-11-14T06:37:39.856Z,101056.33
2017-11-14T06:42:34.426Z,101047.61
2017-11-14T06:45:01.970Z,101054.31
2017-11-14T06:47:29.699Z,101061.07
2017-11-14T06:49:59.896Z,101060.80
2017-11-14T06:52:28.383Z,101057.80
2017-11-14T06:54:57.941Z,101057.93
2017-11-14T06:57:35.488Z,101053.19
2017-11-14T07:00:04.578Z,101056.38
2017-11-14T07:02:32.481Z,101055.33
2017-11-14T07:07:34.660Z,101055.41
2017-11-14T07:10:02.435Z,101066.52
2017-11-14T07:12:31.584Z,101064.17
2017-11-14T07:15:00.491Z,101065.67
2017-11-14T07:17:47.250Z,101073.33
2017-11-14T07:20:15.027Z,101069.66
2017-11-14T07:22:42.673Z,101069.41
2017-11-14T07:25:10.265Z,101070.31
2017-11-14T07:27:37.892Z,101075.38
2017-11-14T07:30:05.610Z,101074.75
2017-11-14T07:32:33.170Z,101073.52
2017-11-14T07:35:00.676Z,101086.95
2017-11-14T07:37:37.891Z,101077.95
2017-11-14T07:40:05.623Z,101086.27
2017-11-14T07:42:33.345Z,101080.98
2017-11-14T07:45:00.925Z,101081.55
2017-11-14T07:47:30.915Z,101079.11
2017-11-14T07:49:58.922Z,101086.06
2017-11-14T07:52:27.267Z,101086.55
2017-11-14T07:54:55.019Z,101092.45
2017-11-14T07:57:22.667Z,101092.95
2017-11-14T07:59:50.251Z,101095.55
2017-11-14T08:02:18.027Z,101102.08
2017-11-14T08:04:45.711Z,101100.02
2017-11-14T08:07:13.528Z,101106.86
2017-11-14T08:09:41.537Z,101111.89
2017-11-14T08:12:09.189Z,101108.93
2017-11-14T08:14:36.932Z,101111.52
2017-11-14T08:17:04.792Z,101106.34
2017-11-14T08:19:32.509Z,101104.77
2017-11-14T08:22:00.457Z,101106.53
2017-11-14T08:24:28.084Z,101109.58
2017-11-14T08:27:19.230Z,101111.37
2017-11-14T08:29:46.838Z,101116.12
2017-11-14T08:32:14.514Z,101111.23
2017-11-14T08:34:42.069Z,101112.17
2017-11-14T08:37:09.728Z,101116.90
2017-11-14T08:39:37.505Z,101113.48
2017-11-14T08:42:05.072Z,101121.13
2017-11-14T08:44:32.852Z,101123.76
2017-11-14T08:47:05.930Z,101128.45
2017-11-14T08:49:34.135Z,101127.36
2017-11-14T08:52:01.877Z,101123.44
2017-11-14T08:54:30.584Z,101129.84
2017-11-14T08:57:03.459Z,101126.83
2017-11-14T08:59:39.763Z,101132.52
2017-11-14T09:02:07.475Z,101133.45
2017-11-14T09:04:35.011Z,101140.29
2017-11-14T09:07:02.665Z,101136.59
2017-11-14T09:09:30.343Z,101140.17
2017-11-14T09:11:57.967Z,101137.27
2017-11-14T09:14:25.548Z,101128.13
2017-11-14T09:16:53.103Z,101130.70
2017-11-14T09:19:20.571Z,101132.38
2017-11-14T09:21:48.157Z,101149.12
2017-11-14T09:24:15.891Z,101147.69
2017-11-14T09:26:43.482Z,101149.97
2017-11-14T09:29:11.036Z,101150.42
2017-11-14T09:31:38.576Z,101153.53
2017-11-14T09:34:07.070Z,101152.63
2017-11-14T09:36:35.103Z,101154.01
2017-11-14T09:39:02.667Z,101152.02
2017-11-14T09:41:30.238Z,101149.94
2017-11-14T09:43:58.004Z,101153.77
2017-11-14T09:49:41.412Z,101155.97
2017-11-14T09:52:08.904Z,101152.25
2017-11-14T09:54:36.362Z,101153.02
2017-11-14T09:57:08.881Z,101142.50
2017-11-14T09:59:36.490Z,101144.51
2017-11-14T10:02:06.216Z,101147.88
2017-11-14T10:04:35.930Z,101151.95
2017-11-14T10:07:03.599Z,101144.07
2017-11-14T10:09:31.346Z,101144.77
2017-11-14T10:11:58.886Z,101147.12
2017-11-14T10:14:26.561Z,101144.23
2017-11-14T10:16:54.408Z,101146.34
2017-11-14T10:19:24.821Z,101143.03
2017-11-14T10:21:52.345Z,101141.36
2017-11-14T10:24:19.865Z,101135.07
2017-11-14T10:26:47.749Z,101131.01
2017-11-14T10:29:15.329Z,101136.23
2017-11-14T10:31:43.791Z,101131.67
2017-11-14T10:34:14.796Z,101131.59
2017-11-14T10:36:42.418Z,101131.27
2017-11-14T10:39:09.927Z,101122.80
2017-11-14T10:41:37.420Z,101125.81
2017-11-14T10:44:04.907Z,101124.29
2017-11-14T10:46:32.491Z,101122.14
2017-11-14T10:49:00.051Z,101128.22
2017-11-14T10:51:27.651Z,101127.43
2017-11-14T10:53:55.412Z,101127.30
2017-11-14T10:56:23.010Z,101126.77
2017-11-14T10:58:50.594Z,101121.44
2017-11-14T11:01:18.155Z,101124.80
2017-11-14T11:03:45.728Z,101120.55
2017-11-14T11:06:13.246Z,101125.30
2017-11-14T11:08:40.856Z,101122.66
2017-11-14T11:11:08.462Z,101116.79
2017-11-14T11:13:37.762Z,101113.48
2017-11-14T11:16:11.724Z,101105.83
2017-11-14T11:18:39.471Z,101112.37
2017-11-14T11:21:06.933Z,101108.04
2017-11-14T11:23:36.066Z,101104.63
2017-11-14T11:26:23.086Z,101109.36
2017-11-14T11:28:51.372Z,101111.22
2017-11-14T11:31:19.955Z,101115.69
2017-11-14T11:33:47.509Z,101105.85
2017-11-14T11:36:15.008Z,101124.00
2017-11-14T11:38:42.565Z,101116.72
2017-11-14T11:41:10.163Z,101113.59
2017-11-14T11:43:39.400Z,101113.05
2017-11-14T11:46:07.001Z,101115.28
2017-11-14T11:48:35.019Z,101110.91
2017-11-14T11:51:02.575Z,101115.13
2017-11-14T11:53:30.889Z,101123.38
2017-11-14T11:55:58.356Z,101123.97
2017-11-14T11:58:25.903Z,101123.62
2017-11-14T12:00:54.387Z,101124.25
2017-11-14T12:03:22.044Z,101119.00
2017-11-14T12:05:49.776Z,101121.39
2017-11-14T12:08:17.492Z,101125.48
2017-11-14T12:10:44.990Z,101121.51
2017-11-14T12:13:12.507Z,101116.34
2017-11-14T12:15:40.190Z,101114.28
2017-11-14T12:18:07.799Z,101107.34
2017-11-14T12:20:35.423Z,101106.73
2017-11-14T12:23:02.995Z,101107.88
2017-11-14T12:25:30.528Z,101102.17
2017-11-14T12:27:58.196Z,101098.15
2017-11-14T12:30:26.076Z,101097.16
2017-11-14T12:32:53.592Z,101089.95
2017-11-14T12:35:21.075Z,101091.14
2017-11-14T12:37:48.629Z,101098.09
2017-11-14T12:40:16.175Z,101099.77
2017-11-14T12:42:43.675Z,101094.72
2017-11-14T12:45:11.169Z,101091.39
2017-11-14T12:47:38.702Z,101093.34
2017-11-14T12:50:06.274Z,101091.83
2017-11-14T12:52:33.803Z,101090.45
2017-11-14T12:55:01.332Z,101092.29
2017-11-14T12:57:38.421Z,101085.05
2017-11-14T13:00:06.053Z,101077.70
2017-11-14T13:02:33.535Z,101074.30
2017-11-14T13:05:01.024Z,101081.01
2017-11-14T13:07:28.558Z,101078.98
2017-11-14T13:09:56.983Z,101071.59
2017-11-14T13:12:29.557Z,101069.33
2017-11-14T13:14:57.239Z,101056.16
2017-11-14T13:17:24.811Z,101058.94
2017-11-14T13:19:52.383Z,101058.35
2017-11-14T13:22:19.974Z,101060.05
2017-11-14T13:24:47.492Z,101054.88
2017-11-14T13:27:15.331Z,101058.54
2017-11-14T13:29:43.395Z,101057.27
2017-11-14T13:32:10.870Z,101056.22
2017-11-14T13:34:38.345Z,101049.92
2017-11-14T13:37:05.822Z,101046.77
2017-11-14T13:39:33.460Z,101050.53
2017-11-14T13:42:00.962Z,101047.36
2017-11-14T13:44:28.621Z,101048.62
2017-11-14T13:46:56.127Z,101051.25
2017-11-14T13:49:23.584Z,101048.10
2017-11-14T13:51:51.300Z,101047.22
2017-11-14T13:54:18.827Z,101042.93
2017-11-14T13:56:46.417Z,101042.74
2017-11-14T13:59:13.904Z,101040.82
2017-11-14T14:01:41.413Z,101043.03
2017-11-14T14:04:08.869Z,101043.19
2017-11-14T14:06:36.472Z,101038.80
2017-11-14T14:09:03.981Z,101039.84
2017-11-14T14:11:31.608Z,101037.32
2017-11-14T14:13:59.094Z,101040.77
2017-11-14T14:16:26.576Z,101057.08
2017-11-14T14:18:54.155Z,101040.47
2017-11-14T14:21:21.638Z,101048.00
2017-11-14T14:23:49.416Z,101057.96
2017-11-14T14:26:16.876Z,101060.20
2017-11-14T14:28:44.329Z,101052.58
2017-11-14T14:31:12.047Z,101060.90
2017-11-14T14:33:39.526Z,101059.03
2017-11-14T14:36:12.024Z,101063.34
2017-11-14T14:38:39.523Z,101058.94
2017-11-14T14:41:07.949Z,101064.83
2017-11-14T14:43:35.516Z,101057.92
2017-11-14T14:46:08.069Z,101061.98
2017-11-14T14:48:35.610Z,101062.00
2017-11-14T14:51:03.099Z,101059.48
2017-11-14T14:53:30.603Z,101061.59
2017-11-14T14:56:03.255Z,101063.66
2017-11-14T14:58:31.946Z,101066.11
2017-11-14T15:00:59.486Z,101068.53
2017-11-14T15:03:26.965Z,101067.97
2017-11-14T15:05:55.577Z,101066.32
2017-11-14T15:08:23.140Z,101060.29
2017-11-14T15:10:50.657Z,101069.05
2017-11-14T15:13:18.161Z,101066.66
2017-11-14T15:15:45.640Z,101065.67
2017-11-14T15:18:13.239Z,101066.58
2017-11-14T15:20:40.819Z,101059.39
2017-11-14T15:23:08.308Z,101069.72
2017-11-14T15:25:40.781Z,101068.11
2017-11-14T15:28:08.528Z,101064.23
2017-11-14T15:30:36.043Z,101066.63
2017-11-14T15:33:03.508Z,101069.55
2017-11-14T15:35:30.972Z,101067.66
2017-11-14T15:37:58.485Z,101066.05
2017-11-14T15:40:25.982Z,101068.61
2017-11-14T15:42:53.522Z,101072.00
2017-11-14T15:45:21.016Z,101066.87
2017-11-14T15:47:48.652Z,101058.20
2017-11-14T15:50:17.055Z,101058.44
2017-11-14T15:52:45.477Z,101062.29
2017-11-14T15:55:13.433Z,101057.37
2017-11-14T15:57:41.300Z,101060.92
2017-11-14T16:00:08.936Z,101063.34
2017-11-14T16:02:36.437Z,101061.64
2017-11-14T16:05:03.930Z,101064.57
2017-11-14T16:07:31.531Z,101061.30
2017-11-14T16:09:59.024Z,101063.98
2017-11-14T16:12:26.513Z,101069.31
2017-11-14T16:14:54.073Z,101069.11
2017-11-14T16:17:21.597Z,101070.14
2017-11-14T16:19:49.143Z,101065.20
2017-11-14T16:22:16.695Z,101071.77
2017-11-14T16:24:44.157Z,101072.55
2017-11-14T16:27:11.752Z,101076.19
2017-11-14T16:29:39.276Z,101076.19
2017-11-14T16:32:06.855Z,101080.94
2017-11-14T16:34:34.536Z,101080.11
2017-11-14T16:37:02.085Z,101081.44
2017-11-14T16:39:29.604Z,101084.00
2017-11-14T16:41:57.134Z,101089.66
2017-11-14T16:44:24.628Z,101093.25
2017-11-14T16:46:52.147Z,101091.40
2017-11-14T16:49:19.678Z,101082.10
2017-11-14T16:51:47.264Z,101086.94
2017-11-14T16:54:14.829Z,101083.18
2017-11-14T16:56:42.473Z,101096.16
2017-11-14T16:59:10.040Z,101095.61
2017-11-14T17:01:37.616Z,101090.48
2017-11-14T17:04:05.162Z,101088.47
2017-11-14T17:06:32.681Z,101089.88
2017-11-14T17:09:00.949Z,101086.03
2017-11-14T17:11:28.500Z,101089.75
2017-11-14T17:13:55.991Z,101088.14
2017-11-14T17:16:23.548Z,101090.12
2017-11-14T17:18:51.016Z,101090.91
2017-11-14T17:21:18.539Z,101100.36
2017-11-14T17:23:45.983Z,101092.10
2017-11-14T17:26:13.536Z,101097.80
2017-11-14T17:28:40.998Z,101101.72
2017-11-14T17:31:08.498Z,101105.16
2017-11-14T17:33:36.295Z,101109.73
2017-11-14T17:36:03.829Z,101108.91
2017-11-14T17:38:31.392Z,101105.52
2017-11-14T17:40:58.896Z,101115.30
2017-11-14T17:43:26.657Z,101108.81
2017-11-14T17:45:54.321Z,101121.13
2017-11-14T17:48:21.890Z,101116.33
2017-11-14T17:50:49.460Z,101114.72
2017-11-14T17:53:16.939Z,101118.52
2017-11-14T17:55:44.475Z,101131.12
2017-11-14T17:58:11.961Z,101123.19
2017-11-14T18:00:39.497Z,101126.08
2017-11-14T18:03:07.042Z,101132.77
2017-11-14T18:05:34.659Z,101137.44
2017-11-14T18:08:02.205Z,101142.97
2017-11-14T18:10:29.759Z,101147.36
2017-11-14T18:12:57.292Z,101142.48
2017-11-14T18:15:24.761Z,101150.29
2017-11-14T18:17:52.256Z,101150.70
2017-11-14T18:20:19.818Z,101152.39
2017-11-14T18:22:47.453Z,101153.54
2017-11-14T18:25:14.940Z,101154.69
2017-11-14T18:27:44.838Z,101160.60
2017-11-14T18:30:12.420Z,101151.95
2017-11-14T18:32:39.933Z,101156.98
2017-11-14T18:35:08.069Z,101161.97
2017-11-14T18:37:35.844Z,101158.85
2017-11-14T18:40:03.387Z,101167.88
2017-11-14T18:42:30.888Z,101164.61
2017-11-14T18:44:58.482Z,101164.10
2017-11-14T18:47:26.092Z,101168.89
2017-11-14T18:49:53.684Z,101171.88
2017-11-14T18:52:21.510Z,101171.16
2017-11-14T18:54:49.125Z,101175.63
2017-11-14T18:57:16.919Z,101177.19
2017-11-14T18:59:44.457Z,101175.55
2017-11-14T19:02:12.010Z,101175.03
2017-11-14T19:04:39.615Z,101174.01
2017-11-14T19:07:07.235Z,101166.20
2017-11-14T19:09:34.788Z,101173.66
2017-11-14T19:12:02.295Z,101174.02
2017-11-14T19:14:29.914Z,101171.82
2017-11-14T19:16:57.565Z,101177.39
2017-11-14T19:19:25.030Z,101177.87
2017-11-14T19:21:52.506Z,101180.16
2017-11-14T19:24:19.985Z,101169.70
2017-11-14T19:26:47.466Z,101174.92
2017-11-14T19:29:14.982Z,101178.37
2017-11-14T19:31:42.560Z,101181.89
2017-11-14T19:34:10.250Z,101181.89
2017-11-14T19:36:37.844Z,101179.25
2017-11-14T19:39:05.475Z,101178.48
2017-11-14T19:41:33.014Z,101181.53
2017-11-14T19:44:01.102Z,101179.57
2017-11-14T19:46:28.691Z,101186.17
2017-11-14T19:48:56.255Z,101184.80
2017-11-14T19:51:23.803Z,101184.12
2017-11-14T19:53:51.520Z,101190.37
2017-11-14T19:56:19.391Z,101190.72
2017-11-14T19:58:46.961Z,101194.33
2017-11-14T20:01:14.522Z,101194.62
2017-11-14T20:03:42.157Z,101198.94
2017-11-14T20:06:09.836Z,101196.05
2017-11-14T20:08:37.382Z,101198.52
2017-11-14T20:11:05.000Z,101200.87
2017-11-14T20:13:32.710Z,101200.98
2017-11-14T20:16:00.325Z,101207.05
2017-11-14T20:18:27.870Z,101202.66
2017-11-14T20:20:55.697Z,101206.09
2017-11-14T20:23:23.222Z,101208.73
2017-11-14T20:25:50.727Z,101206.73
2017-11-14T20:28:19.460Z,101213.33
2017-11-14T20:30:50.150Z,101217.23
2017-11-14T20:33:18.836Z,101225.77
2017-11-14T20:35:46.552Z,101220.16
2017-11-14T20:38:14.161Z,101218.84
2017-11-14T20:40:41.693Z,101224.63
2017-11-14T20:43:09.254Z,101222.80
2017-11-14T20:45:36.783Z,101224.39
2017-11-14T20:48:06.678Z,101223.89
2017-11-14T20:50:34.833Z,101220.77
2017-11-14T20:53:02.366Z,101222.73
2017-11-14T20:55:29.916Z,101223.17
2017-11-14T20:57:57.796Z,101223.14
2017-11-14T21:00:25.422Z,101220.77
2017-11-14T21:02:53.026Z,101221.97
2017-11-14T21:05:20.600Z,101226.94
2017-11-14T21:07:48.396Z,101215.17
2017-11-14T21:10:15.911Z,101220.27
2017-11-14T21:12:43.807Z,101218.00
2017-11-14T21:15:12.946Z,101217.88
2017-11-14T21:17:40.750Z,101220.94
2017-11-14T21:20:10.755Z,101227.37
2017-11-14T21:22:39.336Z,101227.70
2017-11-14T21:25:07.264Z,101226.77
2017-11-14T21:27:35.950Z,101226.27
2017-11-14T21:30:03.747Z,101225.11
2017-11-14T21:32:31.567Z,101227.80
2017-11-14T21:34:59.360Z,101219.86
2017-11-14T21:37:27.383Z,101221.34
2017-11-14T21:39:55.395Z,101217.72
2017-11-14T21:42:23.339Z,101225.62
2017-11-14T21:44:51.100Z,101224.89
2017-11-14T21:47:20.114Z,101221.95
2017-11-14T21:49:47.654Z,101222.87
2017-11-14T21:52:16.018Z,101229.33
2017-11-14T21:54:45.457Z,101224.06
2017-11-14T21:57:18.456Z,101224.03
2017-11-14T21:59:48.135Z,101218.76
2017-11-14T22:02:15.730Z,101226.69
2017-11-14T22:04:43.722Z,101233.19
2017-11-14T22:07:12.699Z,101232.72
2017-11-14T22:09:40.197Z,101239.30
2017-11-14T22:12:08.321Z,101243.82
2017-11-14T22:14:36.666Z,101238.72
2017-11-14T22:17:04.591Z,101243.16
2017-11-14T22:19:33.558Z,101238.86
2017-11-14T22:22:01.158Z,101246.73
2017-11-14T22:24:28.628Z,101238.92
2017-11-14T22:26:56.120Z,101243.20
2017-11-14T22:29:23.686Z,101246.15
2017-11-14T22:31:51.143Z,101259.77
2017-11-14T22:34:18.647Z,101255.45
2017-11-14T22:36:46.209Z,101254.31
2017-11-14T22:39:13.722Z,101255.28
2017-11-14T22:41:41.217Z,101259.98
2017-11-14T22:44:08.895Z,101254.99
2017-11-14T22:46:36.494Z,101257.88
2017-11-14T22:49:04.102Z,101262.68
2017-11-14T22:51:31.643Z,101257.75
2017-11-14T22:53:59.254Z,101254.38
2017-11-14T22:56:26.830Z,101254.09
2017-11-14T22:58:54.517Z,101257.17
2017-11-14T23:01:22.009Z,101252.30
2017-11-14T23:03:49.564Z,101260.45
2017-11-14T23:06:17.378Z,101263.09
2017-11-14T23:08:45.070Z,101264.88
2017-11-14T23:11:13.206Z,101260.34
2017-11-14T23:13:40.738Z,101265.38
2017-11-14T23:16:08.316Z,101268.44
2017-11-14T23:18:36.140Z,101262.36
2017-11-14T23:21:03.607Z,101264.00
2017-11-14T23:23:31.168Z,101263.33
2017-11-14T23:25:58.797Z,101260.92
2017-11-14T23:28:26.282Z,101262.12
2017-11-14T23:30:53.785Z,101262.68
2017-11-14T23:33:21.344Z,101257.64
2017-11-14T23:35:49.193Z,101255.53
2017-11-14T23:38:16.731Z,101255.84
2017-11-14T23:40:44.180Z,101252.71
2017-11-14T23:43:11.729Z,101252.42
2017-11-14T23:45:39.849Z,101247.08
2017-11-14T23:48:07.371Z,101248.34
2017-11-14T23:50:34.925Z,101252.06
2017-11-14T23:53:02.664Z,101252.53
2017-11-14T23:55:30.099Z,101262.12
2017-11-14T23:57:57.661Z,101259.48
